createdAt,value
2018-03-20T00:02:14.485Z,12.90
2018-03-20T00:04:45.522Z,12.67
2018-03-20T00:07:15.649Z,13.40
2018-03-20T00:09:45.392Z,12.87
2018-03-20T00:12:16.134Z,12.00
2018-03-20T00:14:45.910Z,15.47
2018-03-20T00:17:16.444Z,13.37
2018-03-20T00:19:47.756Z,14.23
2018-03-20T00:22:18.289Z,16.80
2018-03-20T00:24:48.754Z,15.63
2018-03-20T00:27:19.334Z,14.40
2018-03-20T00:29:49.772Z,16.03
2018-03-20T00:32:20.062Z,16.00
2018-03-20T00:34:50.398Z,16.42
2018-03-20T00:37:21.164Z,15.30
2018-03-20T00:39:51.694Z,16.03
2018-03-20T00:42:22.829Z,15.57
2018-03-20T00:44:53.760Z,15.23
2018-03-20T00:47:25.337Z,16.48
2018-03-20T00:49:55.365Z,21.73
2018-03-20T00:52:25.129Z,17.83
2018-03-20T00:54:55.425Z,17.33
2018-03-20T00:57:26.494Z,16.27
2018-03-20T00:59:56.257Z,15.83
2018-03-20T01:02:26.808Z,17.43
2018-03-20T01:04:57.165Z,16.55
2018-03-20T01:07:27.131Z,15.10
2018-03-20T01:09:57.644Z,16.20
2018-03-20T01:12:27.571Z,16.70
2018-03-20T01:14:58.626Z,16.00
2018-03-20T01:17:29.053Z,16.50
2018-03-20T01:19:59.037Z,17.30
2018-03-20T01:22:29.813Z,15.73
2018-03-20T01:25:00.569Z,15.37
2018-03-20T01:27:31.315Z,16.10
2018-03-20T01:30:01.023Z,15.57
2018-03-20T01:32:31.402Z,19.97
2018-03-20T01:35:02.034Z,16.93
2018-03-20T01:37:32.537Z,16.07
2018-03-20T01:40:02.266Z,16.87
2018-03-20T01:42:32.787Z,18.90
2018-03-20T01:45:02.533Z,18.00
2018-03-20T01:47:32.333Z,15.80
2018-03-20T01:50:02.175Z,18.77
2018-03-20T01:52:32.766Z,16.40
2018-03-20T01:55:03.268Z,15.95
2018-03-20T01:57:33.077Z,18.93
2018-03-20T02:00:02.987Z,19.57
2018-03-20T02:02:32.728Z,19.13
2018-03-20T02:05:03.222Z,18.43
2018-03-20T02:07:32.971Z,18.60
2018-03-20T02:10:03.429Z,18.30
2018-03-20T02:12:33.106Z,16.93
2018-03-20T02:15:03.620Z,24.07
2018-03-20T02:17:33.273Z,17.02
2018-03-20T02:22:38.390Z,17.33
2018-03-20T02:25:08.816Z,19.77
2018-03-20T02:27:38.585Z,18.60
2018-03-20T02:30:08.387Z,18.73
2018-03-20T02:32:38.167Z,19.03
2018-03-20T02:35:07.878Z,22.90
2018-03-20T02:37:38.419Z,20.90
2018-03-20T02:40:08.412Z,20.10
2018-03-20T02:42:39.110Z,21.80
2018-03-20T02:45:08.832Z,23.40
2018-03-20T02:47:38.572Z,19.20
2018-03-20T02:50:08.263Z,18.77
2018-03-20T02:52:38.290Z,28.53
2018-03-20T02:55:08.860Z,20.47
2018-03-20T02:57:38.651Z,22.93
2018-03-20T03:00:12.055Z,20.80
2018-03-20T03:02:41.837Z,20.67
2018-03-20T03:05:12.339Z,21.30
2018-03-20T03:07:42.026Z,20.23
2018-03-20T03:10:12.725Z,21.57
2018-03-20T03:12:43.206Z,20.40
2018-03-20T03:15:12.965Z,19.70
2018-03-20T03:17:44.397Z,19.17
2018-03-20T03:20:15.710Z,18.17
2018-03-20T03:22:45.484Z,18.50
2018-03-20T03:25:15.301Z,18.87
2018-03-20T03:27:45.911Z,18.40
2018-03-20T03:30:16.375Z,19.35
2018-03-20T03:32:46.087Z,21.20
2018-03-20T03:35:15.864Z,17.05
2018-03-20T03:37:47.682Z,18.27
2018-03-20T03:40:17.684Z,17.45
2018-03-20T03:42:47.497Z,19.23
2018-03-20T03:45:17.195Z,19.60
2018-03-20T03:47:47.547Z,18.83
2018-03-20T03:50:17.316Z,20.70
2018-03-20T03:52:47.063Z,23.63
2018-03-20T03:55:16.785Z,18.02
2018-03-20T03:57:46.489Z,18.50
2018-03-20T04:00:16.264Z,19.35
2018-03-20T04:02:46.660Z,17.67
2018-03-20T04:05:16.384Z,22.98
2018-03-20T04:07:46.154Z,18.77
2018-03-20T04:10:15.879Z,17.80
2018-03-20T04:12:47.820Z,18.17
2018-03-20T04:15:17.537Z,23.10
2018-03-20T04:17:48.416Z,17.77
2018-03-20T04:20:18.373Z,18.73
2018-03-20T04:22:48.163Z,17.63
2018-03-20T04:25:17.945Z,17.97
2018-03-20T04:27:48.474Z,17.45
2018-03-20T04:30:19.814Z,17.70
2018-03-20T04:32:50.313Z,20.43
2018-03-20T04:35:20.438Z,19.17
2018-03-20T04:37:50.166Z,17.30
2018-03-20T04:40:19.939Z,19.10
2018-03-20T04:42:49.672Z,18.10
2018-03-20T04:45:19.514Z,19.63
2018-03-20T04:47:49.339Z,18.40
2018-03-20T04:50:19.324Z,18.67
2018-03-20T04:52:49.403Z,18.25
2018-03-20T04:55:19.339Z,16.92
2018-03-20T04:57:49.767Z,16.60
2018-03-20T05:00:19.578Z,16.53
2018-03-20T05:02:49.414Z,18.73
2018-03-20T05:05:19.342Z,16.23
2018-03-20T05:07:49.641Z,16.53
2018-03-20T05:10:19.488Z,15.80
2018-03-20T05:12:49.273Z,15.67
2018-03-20T05:15:20.934Z,13.40
2018-03-20T05:17:52.487Z,13.95
2018-03-20T05:20:27.489Z,14.60
2018-03-20T05:23:00.102Z,16.07
2018-03-20T05:25:30.864Z,13.87
2018-03-20T05:28:00.815Z,13.68
2018-03-20T05:30:30.788Z,14.93
2018-03-20T05:33:01.150Z,15.23
2018-03-20T05:35:31.450Z,15.33
2018-03-20T05:38:02.077Z,15.83
2018-03-20T05:40:32.426Z,16.33
2018-03-20T05:43:03.870Z,16.67
2018-03-20T05:45:34.657Z,16.23
2018-03-20T05:51:28.693Z,16.00
2018-03-20T05:53:59.055Z,15.13
2018-03-20T05:56:30.179Z,16.40
2018-03-20T05:59:00.322Z,14.38
2018-03-20T06:01:30.814Z,15.30
2018-03-20T06:04:02.114Z,17.17
2018-03-20T06:06:32.206Z,20.90
2018-03-20T06:09:03.183Z,15.38
2018-03-20T06:11:33.734Z,22.40
2018-03-20T06:14:04.214Z,17.03
2018-03-20T06:16:34.356Z,15.20
2018-03-20T06:19:05.363Z,16.40
2018-03-20T06:21:35.584Z,15.70
2018-03-20T06:24:05.659Z,14.70
2018-03-20T06:26:35.956Z,14.30
2018-03-20T06:29:07.251Z,19.40
2018-03-20T06:31:37.378Z,14.80
2018-03-20T06:34:07.563Z,16.03
2018-03-20T06:36:37.811Z,14.93
2018-03-20T06:39:08.018Z,15.05
2018-03-20T06:41:38.398Z,16.03
2018-03-20T06:44:08.885Z,20.03
2018-03-20T06:46:39.339Z,17.17
2018-03-20T06:49:09.449Z,13.83
2018-03-20T06:51:39.133Z,14.10
2018-03-20T06:54:09.601Z,16.73
2018-03-20T06:56:39.985Z,16.10
2018-03-20T06:59:10.366Z,14.83
2018-03-20T07:01:40.904Z,16.13
2018-03-20T07:04:11.430Z,23.40
2018-03-20T07:06:42.354Z,18.50
2018-03-20T07:09:12.468Z,14.70
2018-03-20T07:11:43.115Z,13.50
2018-03-20T07:14:13.422Z,15.20
2018-03-20T07:16:44.309Z,14.83
2018-03-20T07:19:14.454Z,14.73
2018-03-20T07:21:44.690Z,14.17
2018-03-20T07:24:15.432Z,16.53
2018-03-20T07:26:45.738Z,15.57
2018-03-20T07:29:16.021Z,15.47
2018-03-20T07:31:47.723Z,15.27
2018-03-20T07:34:17.945Z,19.80
2018-03-20T07:36:47.950Z,15.23
2018-03-20T07:39:17.858Z,14.63
2018-03-20T07:41:47.930Z,16.13
2018-03-20T07:44:18.943Z,17.10
2018-03-20T07:46:49.165Z,16.80
2018-03-20T07:49:19.369Z,17.80
2018-03-20T07:51:49.605Z,16.17
2018-03-20T07:54:21.246Z,16.12
2018-03-20T07:56:52.013Z,15.70
2018-03-20T07:59:23.186Z,15.70
2018-03-20T08:01:53.907Z,16.07
2018-03-20T08:04:24.537Z,17.80
2018-03-20T08:06:55.654Z,15.87
2018-03-20T08:09:25.857Z,15.30
2018-03-20T08:11:56.191Z,14.07
2018-03-20T08:14:26.522Z,15.90
2018-03-20T08:16:57.022Z,15.13
2018-03-20T08:19:27.875Z,14.80
2018-03-20T08:21:57.998Z,16.93
2018-03-20T08:24:28.672Z,14.47
2018-03-20T08:26:59.704Z,14.90
2018-03-20T08:29:30.651Z,14.67
2018-03-20T08:32:01.631Z,13.43
2018-03-20T08:34:31.932Z,13.50
2018-03-20T08:37:02.209Z,13.62
2018-03-20T08:39:32.063Z,13.67
2018-03-20T08:42:03.185Z,13.13
2018-03-20T08:44:34.499Z,11.83
2018-03-20T08:47:07.172Z,12.40
2018-03-20T08:49:37.318Z,12.50
2018-03-20T08:52:07.489Z,12.40
2018-03-20T08:54:37.730Z,11.07
2018-03-20T08:57:08.146Z,12.17
2018-03-20T08:59:38.510Z,9.60
2018-03-20T09:02:08.554Z,11.50
2018-03-20T09:04:38.856Z,11.53
2018-03-20T09:07:09.623Z,12.27
2018-03-20T09:09:40.082Z,10.90
2018-03-20T09:12:10.747Z,9.80
2018-03-20T09:14:41.595Z,12.50
2018-03-20T09:17:12.062Z,10.43
2018-03-20T09:19:42.434Z,10.30
2018-03-20T09:22:12.188Z,10.90
2018-03-20T09:24:42.752Z,11.45
2018-03-20T09:27:13.258Z,11.40
2018-03-20T09:29:43.644Z,11.00
2018-03-20T09:32:14.970Z,11.10
2018-03-20T09:34:45.283Z,11.50
2018-03-20T09:37:15.828Z,10.87
2018-03-20T09:39:46.132Z,11.68
2018-03-20T09:42:16.366Z,14.98
2018-03-20T09:44:46.752Z,11.07
2018-03-20T09:47:17.244Z,10.80
2018-03-20T09:49:47.349Z,14.43
2018-03-20T09:52:17.745Z,12.33
2018-03-20T09:54:47.770Z,9.95
2018-03-20T09:57:17.663Z,9.67
2018-03-20T09:59:47.953Z,10.83
2018-03-20T10:02:18.721Z,10.52
2018-03-20T10:04:49.306Z,10.77
2018-03-20T10:07:19.913Z,11.40
2018-03-20T10:09:50.441Z,11.40
2018-03-20T10:12:20.904Z,12.57
2018-03-20T10:14:52.626Z,14.83
2018-03-20T10:17:27.909Z,12.00
2018-03-20T10:19:59.206Z,13.40
2018-03-20T10:22:30.280Z,12.87
2018-03-20T10:25:01.621Z,11.40
2018-03-20T10:27:32.366Z,12.02
2018-03-20T10:30:03.372Z,11.83
2018-03-20T10:32:33.771Z,13.00
2018-03-20T10:35:06.927Z,10.83
2018-03-20T10:37:37.541Z,12.00
2018-03-20T10:40:07.954Z,12.83
2018-03-20T10:42:37.989Z,11.43
2018-03-20T10:45:08.069Z,12.00
2018-03-20T10:47:38.009Z,12.07
2018-03-20T10:50:08.625Z,10.77
2018-03-20T10:52:38.726Z,11.77
2018-03-20T10:55:09.519Z,12.10
2018-03-20T10:57:39.380Z,12.10
2018-03-20T11:00:10.072Z,12.80
2018-03-20T11:02:45.503Z,11.97
2018-03-20T11:05:16.725Z,11.13
2018-03-20T11:07:48.322Z,11.10
2018-03-20T11:10:18.969Z,11.90
2018-03-20T11:12:50.243Z,10.13
2018-03-20T11:15:20.659Z,11.85
2018-03-20T11:17:50.943Z,11.33
2018-03-20T11:20:26.682Z,12.50
2018-03-20T11:22:57.169Z,10.13
2018-03-20T11:25:27.523Z,11.93
2018-03-20T11:27:57.821Z,13.73
2018-03-20T11:30:27.615Z,13.10
2018-03-20T11:32:58.087Z,12.80
2018-03-20T11:35:28.518Z,10.93
2018-03-20T11:37:58.752Z,11.32
2018-03-20T11:40:31.230Z,12.60
2018-03-20T11:43:01.820Z,10.10
2018-03-20T11:45:38.611Z,10.68
2018-03-20T11:48:09.802Z,9.88
2018-03-20T11:50:40.319Z,11.87
2018-03-20T11:53:12.059Z,10.05
2018-03-20T11:55:43.864Z,10.97
2018-03-20T11:58:15.957Z,10.93
2018-03-20T12:00:46.597Z,13.83
2018-03-20T12:03:19.971Z,9.90
2018-03-20T12:05:50.675Z,13.98
2018-03-20T12:08:32.606Z,10.67
2018-03-20T12:11:03.882Z,9.50
2018-03-20T12:13:35.753Z,11.60
2018-03-20T12:16:06.073Z,11.00
2018-03-20T12:18:37.192Z,9.80
2018-03-20T12:21:07.034Z,9.55
2018-03-20T12:23:38.644Z,10.43
2018-03-20T12:26:09.409Z,10.05
2018-03-20T12:28:42.677Z,10.20
2018-03-20T12:31:13.001Z,9.53
2018-03-20T12:33:45.324Z,9.20
2018-03-20T12:36:15.290Z,9.83
2018-03-20T12:38:45.927Z,9.80
2018-03-20T12:41:15.821Z,9.32
2018-03-20T12:43:47.226Z,9.90
2018-03-20T12:46:18.326Z,13.63
2018-03-20T12:48:49.686Z,10.93
2018-03-20T12:51:19.848Z,9.83
2018-03-20T12:53:50.817Z,10.23
2018-03-20T12:56:21.071Z,13.17
2018-03-20T12:58:51.402Z,13.77
2018-03-20T13:01:21.891Z,11.13
2018-03-20T13:03:52.341Z,11.40
2018-03-20T13:06:22.773Z,15.73
2018-03-20T13:08:53.027Z,10.40
2018-03-20T13:11:24.237Z,10.37
2018-03-20T13:13:54.592Z,14.23
2018-03-20T13:16:25.754Z,12.90
2018-03-20T13:18:57.274Z,19.20
2018-03-20T13:21:27.457Z,22.90
2018-03-20T13:23:57.959Z,12.75
2018-03-20T13:26:28.818Z,14.80
2018-03-20T13:29:00.422Z,16.23
2018-03-20T13:31:31.390Z,14.00
2018-03-20T13:34:01.394Z,16.00
2018-03-20T13:36:32.441Z,19.30
2018-03-20T13:39:02.482Z,16.03
2018-03-20T13:41:34.254Z,16.00
2018-03-20T13:44:04.910Z,15.60
2018-03-20T13:46:35.292Z,18.37
2018-03-20T13:49:05.663Z,18.83
2018-03-20T13:51:36.087Z,19.47
2018-03-20T13:54:06.251Z,16.63
2018-03-20T13:56:39.022Z,19.20
2018-03-20T13:59:11.213Z,14.80
2018-03-20T14:01:42.426Z,14.40
2018-03-20T14:04:13.465Z,16.90
2018-03-20T14:06:43.576Z,15.35
2018-03-20T14:09:14.018Z,13.83
2018-03-20T14:11:46.835Z,14.33
2018-03-20T14:14:16.683Z,17.20
2018-03-20T14:16:48.611Z,15.07
2018-03-20T14:19:19.392Z,14.83
2018-03-20T14:21:50.631Z,16.97
2018-03-20T14:24:22.242Z,13.00
2018-03-20T14:26:53.295Z,12.37
2018-03-20T14:29:26.544Z,12.63
2018-03-20T14:31:58.572Z,11.50
2018-03-20T14:34:29.066Z,12.30
2018-03-20T14:36:59.312Z,13.73
2018-03-20T14:39:29.113Z,12.63
2018-03-20T14:42:02.609Z,12.13
2018-03-20T14:44:33.537Z,12.17
2018-03-20T14:47:05.187Z,14.87
2018-03-20T14:49:35.562Z,11.80
2018-03-20T14:52:06.377Z,13.10
2018-03-20T14:54:38.250Z,11.27
2018-03-20T14:57:08.020Z,12.45
2018-03-20T14:59:37.968Z,13.52
2018-03-20T15:02:07.957Z,12.90
2018-03-20T15:04:38.560Z,12.00
2018-03-20T15:07:09.071Z,12.30
2018-03-20T15:09:38.911Z,13.57
2018-03-20T15:12:08.715Z,12.40
2018-03-20T15:14:38.550Z,11.57
2018-03-20T15:17:08.542Z,11.23
2018-03-20T15:19:39.758Z,10.73
2018-03-20T15:22:09.557Z,15.33
2018-03-20T15:24:39.517Z,11.57
2018-03-20T15:27:10.035Z,11.57
2018-03-20T15:29:39.859Z,11.07
2018-03-20T15:32:10.559Z,12.77
2018-03-20T15:34:41.248Z,12.07
2018-03-20T15:37:11.078Z,12.43
2018-03-20T15:39:40.915Z,10.93
2018-03-20T15:42:11.547Z,12.00
2018-03-20T15:44:41.373Z,10.03
2018-03-20T15:47:11.471Z,11.45
2018-03-20T15:49:42.130Z,10.20
2018-03-20T15:52:11.845Z,11.33
2018-03-20T15:54:41.798Z,12.30
2018-03-20T15:57:11.874Z,12.60
2018-03-20T15:59:42.096Z,13.62
2018-03-20T16:02:12.564Z,10.55
2018-03-20T16:04:43.551Z,13.23
2018-03-20T16:07:13.293Z,10.20
2018-03-20T16:09:44.288Z,12.53
2018-03-20T16:12:14.045Z,11.47
2018-03-20T16:14:44.558Z,11.30
2018-03-20T16:17:14.720Z,10.20
2018-03-20T16:19:44.479Z,10.60
2018-03-20T16:22:14.318Z,11.15
2018-03-20T16:24:44.605Z,11.10
2018-03-20T16:27:14.585Z,10.73
2018-03-20T16:29:45.051Z,10.38
2018-03-20T16:32:15.654Z,12.60
2018-03-20T16:34:45.787Z,14.33
2018-03-20T16:37:16.127Z,10.80
2018-03-20T16:39:46.260Z,8.87
2018-03-20T16:42:15.966Z,12.03
2018-03-20T16:44:47.063Z,9.37
2018-03-20T16:47:17.028Z,9.43
2018-03-20T16:49:47.099Z,9.90
2018-03-20T16:52:16.861Z,10.20
2018-03-20T16:54:47.066Z,9.27
2018-03-20T16:57:17.809Z,10.43
2018-03-20T16:59:47.854Z,12.00
2018-03-20T17:02:17.747Z,16.80
2018-03-20T17:04:47.946Z,9.88
2018-03-20T17:07:18.507Z,9.97
2018-03-20T17:09:49.503Z,9.93
2018-03-20T17:12:19.416Z,10.27
2018-03-20T17:14:49.373Z,10.60
2018-03-20T17:17:20.195Z,10.50
2018-03-20T17:22:26.467Z,15.33
2018-03-20T17:24:56.703Z,11.90
2018-03-20T17:27:27.625Z,12.25
2018-03-20T17:29:58.053Z,9.27
2018-03-20T17:32:28.182Z,14.20
2018-03-20T17:34:58.642Z,10.23
2018-03-20T17:37:28.973Z,8.90
2018-03-20T17:39:59.645Z,10.50
2018-03-20T17:42:29.353Z,10.00
2018-03-20T17:44:59.093Z,11.00
2018-03-20T17:47:29.637Z,9.20
2018-03-20T17:50:01.759Z,12.37
2018-03-20T17:52:31.501Z,11.40
2018-03-20T17:55:01.622Z,10.63
2018-03-20T17:57:31.902Z,9.27
2018-03-20T18:00:03.066Z,9.88
2018-03-20T18:02:33.279Z,9.23
2018-03-20T18:05:03.304Z,10.10
2018-03-20T18:07:33.359Z,11.50
2018-03-20T18:10:03.390Z,9.33
2018-03-20T18:12:33.782Z,9.53
2018-03-20T18:15:03.578Z,9.80
2018-03-20T18:17:34.088Z,11.10
2018-03-20T18:20:04.217Z,9.77
2018-03-20T18:22:34.321Z,9.35
2018-03-20T18:25:04.894Z,9.00
2018-03-20T18:27:35.312Z,9.43
2018-03-20T18:30:05.042Z,10.50
2018-03-20T18:32:35.345Z,10.70
2018-03-20T18:35:05.239Z,9.80
2018-03-20T18:37:36.691Z,8.90
2018-03-20T18:40:06.698Z,9.35
2018-03-20T18:42:36.687Z,9.70
2018-03-20T18:45:07.866Z,9.17
2018-03-20T18:47:38.721Z,8.77
2018-03-20T18:50:09.426Z,10.37
2018-03-20T18:52:40.493Z,9.70
2018-03-20T18:55:10.923Z,8.60
2018-03-20T18:57:41.089Z,8.52
2018-03-20T19:00:11.475Z,10.57
2018-03-20T19:02:41.744Z,10.73
2018-03-20T19:05:11.869Z,8.20
2018-03-20T19:07:42.488Z,8.90
2018-03-20T19:10:13.064Z,10.57
2018-03-20T19:12:43.540Z,8.47
2018-03-20T19:15:13.701Z,9.60
2018-03-20T19:17:43.479Z,11.20
2018-03-20T19:20:14.204Z,11.40
2018-03-20T19:22:45.204Z,10.17
2018-03-20T19:25:15.399Z,10.33
2018-03-20T19:27:45.258Z,9.53
2018-03-20T19:30:16.092Z,8.87
2018-03-20T19:32:46.572Z,9.93
2018-03-20T19:35:16.316Z,14.37
2018-03-20T19:37:46.122Z,9.40
2018-03-20T19:40:15.837Z,12.43
2018-03-20T19:42:45.552Z,9.13
2018-03-20T19:45:15.263Z,17.40
2018-03-20T19:47:44.999Z,9.97
2018-03-20T19:50:15.520Z,12.27
2018-03-20T19:52:46.021Z,8.37
2018-03-20T19:55:15.792Z,10.20
2018-03-20T19:57:45.550Z,10.93
2018-03-20T20:00:15.259Z,8.23
2018-03-20T20:02:44.962Z,8.90
2018-03-20T20:05:15.556Z,8.93
2018-03-20T20:07:45.253Z,9.40
2018-03-20T20:10:15.787Z,9.67
2018-03-20T20:12:45.535Z,7.83
2018-03-20T20:15:15.254Z,10.70
2018-03-20T20:17:45.041Z,9.17
2018-03-20T20:20:16.432Z,9.90
2018-03-20T20:22:46.955Z,9.03
2018-03-20T20:25:16.754Z,8.60
2018-03-20T20:27:46.514Z,9.13
2018-03-20T20:30:16.163Z,8.93
2018-03-20T20:32:45.897Z,6.40
2018-03-20T20:35:15.659Z,7.00
2018-03-20T20:37:45.419Z,8.07
2018-03-20T20:40:16.009Z,7.93
2018-03-20T20:42:45.694Z,7.20
2018-03-20T20:45:16.797Z,6.62
2018-03-20T20:47:47.006Z,7.37
2018-03-20T20:50:16.734Z,6.57
2018-03-20T20:52:46.763Z,7.82
2018-03-20T20:55:17.769Z,8.70
2018-03-20T20:57:48.941Z,6.30
2018-03-20T21:00:19.941Z,7.25
2018-03-20T21:02:49.703Z,7.13
2018-03-20T21:05:19.514Z,7.07
2018-03-20T21:07:49.974Z,6.53
2018-03-20T21:10:19.977Z,6.50
2018-03-20T21:12:49.773Z,8.03
2018-03-20T21:15:20.246Z,8.02
2018-03-20T21:17:50.107Z,8.10
2018-03-20T21:20:20.810Z,6.40
2018-03-20T21:22:50.495Z,6.50
2018-03-20T21:25:20.225Z,6.03
2018-03-20T21:27:50.021Z,9.57
2018-03-20T21:30:20.276Z,10.57
2018-03-20T21:32:50.386Z,7.20
2018-03-20T21:35:20.414Z,7.23
2018-03-20T21:37:50.209Z,7.53
2018-03-20T21:40:21.266Z,6.60
2018-03-20T21:42:51.203Z,6.30
2018-03-20T21:45:21.838Z,6.20
2018-03-20T21:47:53.094Z,7.80
2018-03-20T21:50:23.808Z,6.00
2018-03-20T21:52:54.314Z,6.60
2018-03-20T21:55:24.069Z,6.80
2018-03-20T21:57:54.399Z,6.30
2018-03-20T22:00:24.683Z,6.67
2018-03-20T22:02:55.558Z,8.13
2018-03-20T22:05:25.959Z,6.43
2018-03-20T22:07:57.130Z,5.83
2018-03-20T22:10:27.332Z,5.40
2018-03-20T22:12:57.735Z,6.90
2018-03-20T22:15:27.556Z,6.12
2018-03-20T22:17:58.058Z,8.93
2018-03-20T22:20:27.824Z,6.37
2018-03-20T22:22:57.494Z,6.15
2018-03-20T22:25:27.165Z,6.53
2018-03-20T22:27:57.319Z,5.70
2018-03-20T22:30:27.587Z,6.20
2018-03-20T22:32:57.860Z,5.53
2018-03-20T22:35:28.185Z,6.40
2018-03-20T22:37:57.873Z,6.10
2018-03-20T22:40:27.611Z,5.57
2018-03-20T22:42:57.313Z,6.20
2018-03-20T22:45:27.020Z,5.17
2018-03-20T22:47:56.727Z,9.30
2018-03-20T22:50:26.465Z,6.20
2018-03-20T22:52:57.239Z,6.40
2018-03-20T22:55:27.165Z,5.93
2018-03-20T22:57:57.079Z,6.03
2018-03-20T23:00:31.146Z,5.62
2018-03-20T23:03:03.747Z,5.83
2018-03-20T23:05:35.136Z,5.75
2018-03-20T23:08:05.298Z,6.50
2018-03-20T23:10:35.690Z,6.23
2018-03-20T23:13:06.727Z,5.43
2018-03-20T23:15:36.882Z,7.53
2018-03-20T23:18:08.291Z,7.70
2018-03-20T23:20:38.675Z,8.00
2018-03-20T23:23:08.638Z,7.65
2018-03-20T23:25:39.077Z,6.57
2018-03-20T23:28:10.423Z,5.80
2018-03-20T23:30:40.378Z,6.00
2018-03-20T23:33:10.649Z,6.17
2018-03-20T23:35:40.465Z,7.43
2018-03-20T23:38:10.177Z,6.00
2018-03-20T23:40:40.293Z,8.43
2018-03-20T23:43:11.333Z,12.30
2018-03-20T23:45:41.140Z,8.30
2018-03-20T23:48:10.959Z,5.80
2018-03-20T23:50:41.835Z,7.50
2018-03-20T23:53:12.320Z,5.47
2018-03-20T23:55:42.039Z,6.30
2018-03-20T23:58:13.679Z,6.90
